Time;durP1;ratioP1;P1;durP2;ratioP2;P2;SDS_P1;SDS_P2;PMS_P1;PMS_P2;Temp;Humidity;BMP_temperature;BMP_pressure;BME280_temperature;BME280_humidity;BME280_pressure;Samples;Min_cycle;Max_cycle;Signal;HPM_P1;HPM_P2
2021/06/27 00:01:20;;;;;;;2.03;1.93;;;40.90;30.60;;;;;;5064932;28;20468;-27
2021/06/27 00:03:51;;;;;;;1.97;1.87;;;40.80;31.40;;;;;;5066039;28;20850;-22
2021/06/27 00:06:23;;;;;;;1.43;1.40;;;40.90;32.10;;;;;;5065562;28;20452;-26
2021/06/27 00:08:54;;;;;;;1.63;1.53;;;41.00;29.70;;;;;;5065370;28;20467;-25
2021/06/27 00:11:25;;;;;;;1.50;1.50;;;40.90;29.60;;;;;;5056692;28;20537;-26
2021/06/27 00:13:56;;;;;;;1.57;1.57;;;41.00;31.10;;;;;;5065273;28;20444;-27
2021/06/27 00:16:31;;;;;;;1.50;1.40;;;40.90;30.90;;;;;;5065124;28;20443;-30
2021/06/27 00:19:03;;;;;;;1.80;1.70;;;40.90;29.60;;;;;;5064884;28;20477;-27
2021/06/27 00:21:34;;;;;;;1.57;1.57;;;40.80;31.10;;;;;;5064697;28;20485;-25
2021/06/27 00:24:06;;;;;;;1.27;1.27;;;40.80;32.00;;;;;;5064803;28;20459;-25
2021/06/27 00:26:37;;;;;;;1.73;1.40;;;40.70;31.30;;;;;;5065101;28;20480;-25
2021/06/27 00:29:08;;;;;;;1.70;1.27;;;40.70;29.30;;;;;;5064560;28;20478;-26
2021/06/27 00:31:41;;;;;;;1.20;1.20;;;40.50;30.50;;;;;;5065410;28;20436;-26
2021/06/27 00:34:12;;;;;;;1.90;1.80;;;40.50;31.80;;;;;;5064929;28;20479;-26
2021/06/27 00:36:43;;;;;;;5.63;5.30;;;40.40;31.00;;;;;;5064813;28;20456;-27
2021/06/27 00:39:14;;;;;;;10.10;9.30;;;40.40;34.80;;;;;;5063839;28;20452;-24
2021/06/27 00:41:45;;;;;;;26.80;24.83;;;40.20;35.80;;;;;;5064795;28;20553;-28
2021/06/27 00:44:21;;;;;;;14.17;13.27;;;40.00;36.70;;;;;;5064672;28;20479;-26
2021/06/27 00:46:54;;;;;;;9.63;8.80;;;39.80;40.50;;;;;;5064859;28;20482;-27
2021/06/27 00:49:26;;;;;;;7.80;7.30;;;39.70;40.00;;;;;;5049548;28;20480;-27
2021/06/27 00:51:57;;;;;;;8.13;7.40;;;39.50;41.00;;;;;;5063217;28;20517;-26
2021/06/27 00:54:28;;;;;;;8.47;7.97;;;39.40;40.60;;;;;;5063302;28;20456;-27
2021/06/27 00:56:59;;;;;;;4.87;4.47;;;39.30;41.90;;;;;;5064667;28;20477;-26
2021/06/27 00:59:30;;;;;;;6.20;5.63;;;39.10;40.40;;;;;;5064498;28;20469;-26
2021/06/27 01:02:03;;;;;;;8.83;8.23;;;39.00;40.90;;;;;;5064568;28;20637;-27
2021/06/27 01:04:34;;;;;;;4.30;4.10;;;38.80;42.50;;;;;;5063758;28;20444;-26
2021/06/27 01:07:06;;;;;;;5.40;5.00;;;38.80;43.30;;;;;;5065375;28;20463;-26
2021/06/27 01:09:37;;;;;;;4.77;4.47;;;38.60;44.40;;;;;;5063323;28;20796;-24
2021/06/27 01:12:09;;;;;;;4.90;4.67;;;38.60;44.60;;;;;;5063425;28;20467;-26
2021/06/27 01:14:40;;;;;;;4.97;4.67;;;38.50;44.60;;;;;;5063470;28;20456;-26
2021/06/27 01:17:13;;;;;;;4.60;4.30;;;38.40;45.30;;;;;;5064557;28;20444;-25
2021/06/27 01:19:44;;;;;;;4.30;4.10;;;38.30;44.50;;;;;;5063398;28;20569;-31
2021/06/27 01:22:18;;;;;;;5.03;4.50;;;38.30;45.00;;;;;;5064197;28;20968;-27
2021/06/27 01:24:49;;;;;;;5.00;4.70;;;38.20;45.10;;;;;;5063130;28;20517;-27
2021/06/27 01:27:21;;;;;;;4.60;4.30;;;38.10;46.00;;;;;;5063207;28;20452;-29
2021/06/27 01:29:52;;;;;;;4.73;4.37;;;38.00;45.60;;;;;;5058159;28;20451;-24
2021/06/27 01:32:23;;;;;;;4.67;4.47;;;37.80;46.80;;;;;;5062855;28;20434;-26
2021/06/27 01:34:54;;;;;;;4.77;4.43;;;37.60;47.20;;;;;;5061878;28;20792;-23
2021/06/27 01:37:26;;;;;;;5.00;4.70;;;37.60;47.00;;;;;;5063283;28;20456;-26
2021/06/27 01:39:57;;;;;;;5.90;5.60;;;37.60;47.40;;;;;;5061840;28;20500;-28
2021/06/27 01:42:28;;;;;;;5.63;5.37;;;37.60;48.00;;;;;;5063366;28;20513;-24
2021/06/27 01:44:59;;;;;;;5.37;5.17;;;37.60;48.00;;;;;;5063038;28;20461;-25
2021/06/27 01:47:31;;;;;;;5.57;5.27;;;37.60;48.60;;;;;;5063690;28;20447;-29
2021/06/27 01:50:02;;;;;;;5.50;5.20;;;37.50;47.70;;;;;;5060378;28;20471;-28
2021/06/27 01:52:35;;;;;;;5.37;5.17;;;37.50;48.10;;;;;;5063392;28;20560;-24
2021/06/27 01:55:09;;;;;;;6.33;5.90;;;37.50;48.40;;;;;;5061499;28;20826;-30
2021/06/27 01:57:43;;;;;;;6.80;6.40;;;37.50;49.00;;;;;;5062838;28;20546;-24
2021/06/27 02:00:18;;;;;;;6.10;5.60;;;37.50;49.20;;;;;;5062115;28;20517;-26
2021/06/27 02:02:49;;;;;;;5.70;5.37;;;37.40;49.20;;;;;;5060677;28;20577;-25
2021/06/27 02:05:20;;;;;;;5.50;5.20;;;37.40;48.60;;;;;;5063267;28;20486;-27
2021/06/27 02:07:52;;;;;;;5.70;5.50;;;37.40;48.80;;;;;;5063253;28;20536;-26
2021/06/27 02:10:26;;;;;;;8.37;7.67;;;37.40;49.30;;;;;;5061661;28;20443;-25
2021/06/27 02:12:58;;;;;;;7.90;7.50;;;37.30;49.40;;;;;;5060531;28;20447;-25
2021/06/27 02:15:29;;;;;;;6.97;6.50;;;37.20;50.00;;;;;;5062376;28;20439;-26
2021/06/27 02:18:28;;;;;;;6.27;5.97;;;37.10;50.30;;;;;;5063685;28;20467;-26
2021/06/27 02:21:01;;;;;;;6.47;6.17;;;36.90;51.00;;;;;;5063044;28;20462;-25
2021/06/27 02:23:34;;;;;;;6.37;6.07;;;36.80;52.10;;;;;;5062186;28;20528;-23
2021/06/27 02:26:06;;;;;;;6.67;6.27;;;36.70;52.60;;;;;;5061238;28;20482;-26
2021/06/27 02:28:38;;;;;;;5.87;5.67;;;36.60;52.20;;;;;;5062219;28;20455;-26
2021/06/27 02:31:09;;;;;;;7.80;7.30;;;36.60;52.90;;;;;;5052767;28;20482;-25
2021/06/27 02:33:41;;;;;;;7.17;6.77;;;36.50;53.60;;;;;;5062237;28;20453;-25
2021/06/27 02:36:12;;;;;;;6.37;6.07;;;36.50;53.20;;;;;;5062797;28;20446;-26
2021/06/27 02:38:45;;;;;;;6.53;6.10;;;36.50;52.30;;;;;;5062379;28;20444;-25
2021/06/27 02:41:16;;;;;;;6.13;5.83;;;36.50;52.50;;;;;;5061821;28;20455;-28
2021/06/27 02:43:47;;;;;;;6.47;6.07;;;36.50;52.50;;;;;;5061468;28;20482;-27
2021/06/27 02:46:19;;;;;;;6.57;6.27;;;36.50;52.30;;;;;;5060350;28;20458;-25
2021/06/27 02:51:58;;;;;;;6.33;6.03;;;36.40;52.60;;;;;;5062513;28;20443;-25
2021/06/27 02:54:30;;;;;;;6.40;6.10;;;36.30;52.80;;;;;;5061765;28;20456;-23
2021/06/27 02:57:01;;;;;;;6.33;5.80;;;36.20;52.40;;;;;;5062467;28;20506;-26
2021/06/27 02:59:32;;;;;;;6.03;5.67;;;36.10;52.80;;;;;;5062075;28;20460;-26
2021/06/27 03:02:03;;;;;;;5.60;5.40;;;36.10;52.50;;;;;;5062589;28;20502;-26
2021/06/27 03:04:35;;;;;;;6.13;5.83;;;36.10;51.90;;;;;;5061762;28;20587;-24
2021/06/27 03:07:10;;;;;;;5.60;5.40;;;36.00;52.40;;;;;;5062775;28;20454;-24
2021/06/27 03:09:43;;;;;;;5.80;5.50;;;35.90;52.10;;;;;;5061629;28;20455;-25
2021/06/27 03:12:14;;;;;;;6.00;5.60;;;35.80;53.60;;;;;;5062104;28;20455;-25
2021/06/27 03:14:45;;;;;;;5.97;5.50;;;35.80;53.20;;;;;;5062009;28;20451;-26
2021/06/27 03:17:16;;;;;;;5.80;5.30;;;35.70;53.00;;;;;;5064251;28;20486;-27
2021/06/27 03:19:47;;;;;;;6.50;5.90;;;35.60;54.30;;;;;;5065310;28;20495;-24
2021/06/27 03:22:18;;;;;;;6.10;5.50;;;35.40;55.40;;;;;;5051830;28;20455;-24
2021/06/27 03:24:51;;;;;;;6.07;5.73;;;35.10;56.40;;;;;;5065611;28;20543;-27
2021/06/27 03:27:22;;;;;;;5.93;5.60;;;34.80;57.30;;;;;;5065853;28;20450;-25
2021/06/27 03:29:53;;;;;;;5.90;5.60;;;34.70;57.70;;;;;;5065847;28;20452;-26
2021/06/27 03:32:25;;;;;;;5.97;5.67;;;34.40;58.40;;;;;;5065652;28;20452;-23
2021/06/27 03:34:56;;;;;;;5.90;5.60;;;34.30;58.30;;;;;;5064859;28;20494;-25
2021/06/27 03:37:26;;;;;;;6.30;5.80;;;34.20;59.30;;;;;;5066483;28;20510;-29
2021/06/27 03:39:59;;;;;;;6.40;6.00;;;34.00;60.50;;;;;;5064398;28;20462;-26
2021/06/27 03:42:30;;;;;;;6.27;5.77;;;34.00;58.90;;;;;;5065079;28;20478;-26
2021/06/27 03:45:01;;;;;;;6.23;5.93;;;34.10;58.80;;;;;;5065582;28;20494;-28
2021/06/27 03:47:32;;;;;;;6.03;5.60;;;34.10;59.20;;;;;;5065948;28;20455;-24
2021/06/27 03:50:06;;;;;;;6.20;5.90;;;34.10;59.50;;;;;;5064866;28;20494;-26
2021/06/27 03:52:37;;;;;;;7.00;6.50;;;34.00;59.60;;;;;;5065907;28;20443;-28
2021/06/27 03:55:11;;;;;;;6.77;6.17;;;33.90;59.70;;;;;;5064312;28;20497;-24
2021/06/27 03:57:42;;;;;;;6.53;6.00;;;33.80;61.70;;;;;;5065220;28;20475;-26
2021/06/27 04:00:13;;;;;;;6.50;6.10;;;33.70;63.50;;;;;;5064627;28;20451;-25
2021/06/27 04:02:45;;;;;;;7.10;6.70;;;33.60;63.00;;;;;;5065256;28;20508;-23
2021/06/27 04:05:16;;;;;;;7.00;6.70;;;33.30;64.60;;;;;;5064298;28;20494;-25
2021/06/27 04:07:47;;;;;;;7.30;6.90;;;33.10;65.80;;;;;;5065832;28;20447;-29
2021/06/27 04:10:20;;;;;;;7.10;6.70;;;32.90;67.30;;;;;;5063588;28;20496;-26
2021/06/27 04:12:52;;;;;;;7.47;6.83;;;32.80;67.90;;;;;;5065532;28;20451;-26
2021/06/27 04:15:23;;;;;;;7.80;7.40;;;32.60;69.50;;;;;;5065015;28;20516;-24
2021/06/27 04:17:57;;;;;;;8.30;7.90;;;32.40;70.50;;;;;;5065681;28;20982;-24
2021/06/27 04:20:28;;;;;;;7.57;7.07;;;32.30;71.40;;;;;;5064543;28;20459;-26
2021/06/27 04:23:01;;;;;;;7.83;7.33;;;32.30;71.20;;;;;;5066176;28;20451;-26
2021/06/27 04:25:35;;;;;;;7.50;6.83;;;32.30;72.00;;;;;;5062562;28;20999;-26
2021/06/27 04:28:07;;;;;;;7.27;6.77;;;32.30;71.20;;;;;;5064948;28;20457;-27
2021/06/27 04:30:39;;;;;;;7.50;6.80;;;32.20;71.10;;;;;;5065104;28;20450;-26
2021/06/27 04:33:11;;;;;;;7.40;6.73;;;32.20;72.20;;;;;;5064095;28;20476;-24
2021/06/27 04:35:43;;;;;;;6.70;6.20;;;32.00;73.20;;;;;;5063621;28;20438;-24
2021/06/27 04:38:17;;;;;;;6.60;6.20;;;31.80;73.90;;;;;;5065915;28;20444;-29
2021/06/27 04:40:50;;;;;;;6.90;6.33;;;31.70;73.10;;;;;;5064008;28;20507;-25
2021/06/27 04:43:21;;;;;;;6.80;6.40;;;31.60;73.80;;;;;;5054592;28;20465;-26
2021/06/27 04:45:52;;;;;;;7.00;6.60;;;31.50;73.50;;;;;;5060069;28;20455;-23
2021/06/27 04:48:23;;;;;;;7.57;7.00;;;31.50;72.70;;;;;;5061939;28;20443;-26
2021/06/27 04:50:55;;;;;;;7.53;7.00;;;31.50;73.00;;;;;;5064990;28;20444;-26
2021/06/27 04:53:26;;;;;;;6.83;6.30;;;31.60;72.40;;;;;;5064855;28;20758;-23
2021/06/27 04:55:59;;;;;;;7.10;6.70;;;31.60;72.40;;;;;;5063143;28;20501;-25
2021/06/27 04:58:30;;;;;;;6.87;6.40;;;31.70;72.60;;;;;;5063960;28;20453;-24
2021/06/27 05:01:02;;;;;;;6.93;6.53;;;31.60;72.90;;;;;;5063905;28;20469;-25
2021/06/27 05:03:33;;;;;;;6.67;6.37;;;31.60;73.80;;;;;;5064927;28;20451;-26
2021/06/27 05:06:04;;;;;;;7.00;6.60;;;31.40;74.80;;;;;;5063757;28;20888;-25
2021/06/27 05:08:35;;;;;;;7.13;6.73;;;31.20;76.20;;;;;;5066284;28;20443;-26
2021/06/27 05:11:07;;;;;;;7.43;6.93;;;31.10;76.70;;;;;;5060910;28;20777;-23
2021/06/27 05:13:38;;;;;;;7.77;7.20;;;31.00;77.00;;;;;;5060379;28;20442;-25
2021/06/27 05:16:09;;;;;;;7.53;6.93;;;31.00;77.20;;;;;;5060139;28;20464;-25
2021/06/27 05:18:40;;;;;;;7.33;6.73;;;30.90;77.20;;;;;;5063440;28;20451;-25
2021/06/27 05:21:11;;;;;;;7.10;6.60;;;31.00;77.20;;;;;;5063943;28;20443;-23
2021/06/27 05:23:42;;;;;;;7.23;6.83;;;31.00;77.20;;;;;;5064227;28;20448;-29
2021/06/27 05:26:15;;;;;;;7.87;7.27;;;31.00;76.80;;;;;;5062522;28;20454;-24
2021/06/27 05:28:46;;;;;;;7.80;7.30;;;31.00;76.60;;;;;;5061092;28;20538;-26
2021/06/27 05:31:17;;;;;;;8.17;7.53;;;31.00;77.10;;;;;;5064017;28;20449;-25
2021/06/27 05:33:48;;;;;;;7.47;6.93;;;30.90;77.70;;;;;;5063876;28;20472;-25
2021/06/27 05:36:19;;;;;;;7.50;7.00;;;30.80;77.90;;;;;;5063332;28;21033;-24
2021/06/27 05:38:50;;;;;;;6.73;6.33;;;30.70;78.40;;;;;;5063062;28;20447;-25
2021/06/27 05:41:23;;;;;;;7.30;6.70;;;30.60;78.40;;;;;;5062743;28;20518;-24
2021/06/27 05:43:54;;;;;;;7.53;6.90;;;30.60;78.10;;;;;;5063384;28;20447;-26
2021/06/27 05:46:24;;;;;;;6.50;6.10;;;30.50;79.30;;;;;;5063073;28;20527;-24
2021/06/27 05:48:56;;;;;;;7.60;7.00;;;30.40;79.00;;;;;;5062501;28;20475;-26
2021/06/27 05:51:29;;;;;;;7.40;6.90;;;30.30;80.10;;;;;;5063499;28;20438;-25
2021/06/27 05:54:00;;;;;;;7.73;7.00;;;30.10;81.30;;;;;;5052743;28;20460;-23
2021/06/27 05:56:33;;;;;;;8.30;6.90;;;30.00;81.70;;;;;;5062966;28;21054;-27
2021/06/27 05:59:04;;;;;;;7.40;7.00;;;30.00;81.90;;;;;;5062254;28;20958;-25
2021/06/27 06:01:35;;;;;;;7.20;6.60;;;30.00;82.60;;;;;;5063363;28;20480;-26
2021/06/27 06:04:07;;;;;;;7.47;7.00;;;30.00;82.50;;;;;;5062976;28;20855;-27
2021/06/27 06:06:38;;;;;;;7.50;7.10;;;29.90;82.90;;;;;;5056855;28;20548;-26
2021/06/27 06:09:09;;;;;;;7.20;6.70;;;29.90;83.30;;;;;;5061450;28;20558;-24
2021/06/27 06:11:41;;;;;;;7.50;7.00;;;30.00;83.50;;;;;;5063059;28;20455;-23
2021/06/27 06:14:12;;;;;;;7.27;6.83;;;29.90;83.60;;;;;;5062654;28;20461;-23
2021/06/27 06:16:45;;;;;;;7.40;6.90;;;29.80;83.60;;;;;;5062596;28;20494;-23
2021/06/27 06:19:18;;;;;;;7.20;6.70;;;29.80;84.40;;;;;;5061753;28;20773;-22
2021/06/27 06:21:49;;;;;;;7.50;7.00;;;29.70;84.60;;;;;;5063586;28;20447;-23
2021/06/27 06:24:21;;;;;;;7.57;7.07;;;29.60;85.20;;;;;;5061799;28;20470;-24
2021/06/27 06:26:53;;;;;;;7.50;6.97;;;29.60;85.70;;;;;;5062597;28;20487;-22
2021/06/27 06:29:24;;;;;;;7.80;7.10;;;29.50;86.50;;;;;;5061796;28;20480;-25
2021/06/27 06:31:55;;;;;;;7.13;6.50;;;29.40;86.40;;;;;;5062315;28;20448;-24
2021/06/27 06:34:26;;;;;;;7.90;7.30;;;29.40;86.70;;;;;;5061549;28;20476;-24
2021/06/27 06:36:57;;;;;;;7.70;7.00;;;29.40;87.40;;;;;;5062517;28;20487;-24
2021/06/27 06:39:28;;;;;;;6.77;6.37;;;29.50;87.70;;;;;;5060571;28;20470;-22
2021/06/27 06:42:01;;;;;;;7.17;6.67;;;29.40;88.20;;;;;;5062551;28;20491;-24
2021/06/27 06:44:32;;;;;;;7.03;6.63;;;29.30;88.40;;;;;;5062273;28;20467;-23
2021/06/27 06:47:03;;;;;;;7.53;6.90;;;29.20;89.80;;;;;;5051719;28;20456;-25
2021/06/27 06:49:34;;;;;;;7.33;6.80;;;29.00;90.40;;;;;;5061236;28;20483;-23
2021/06/27 06:52:26;;;;;;;7.47;6.97;;;28.90;91.20;;;;;;5062682;28;20488;-26
2021/06/27 06:54:57;;;;;;;7.33;6.83;;;28.80;91.50;;;;;;5061575;28;20513;-22
2021/06/27 06:57:29;;;;;;;6.90;6.40;;;28.70;92.10;;;;;;5061753;28;20468;-24
2021/06/27 07:00:00;;;;;;;7.23;6.83;;;28.60;92.30;;;;;;5061832;28;20468;-25
2021/06/27 07:02:31;;;;;;;7.47;6.97;;;28.50;92.90;;;;;;5062195;28;20566;-25
2021/06/27 07:05:05;;;;;;;6.90;6.50;;;28.50;93.10;;;;;;5061694;28;20544;-28
2021/06/27 07:07:45;;;;;;;7.27;6.77;;;28.40;93.70;;;;;;5064143;28;20441;-27
2021/06/27 07:10:16;;;;;;;7.63;7.13;;;28.30;94.30;;;;;;5061362;28;20751;-23
2021/06/27 07:12:52;;;;;;;7.60;7.10;;;28.20;94.70;;;;;;5062477;28;20479;-23
2021/06/27 07:15:24;;;;;;;8.07;7.17;;;28.10;95.30;;;;;;5061940;28;20456;-24
2021/06/27 07:17:55;;;;;;;7.93;7.33;;;28.10;95.80;;;;;;5061567;28;20861;-27
2021/06/27 07:20:26;;;;;;;7.63;7.13;;;27.90;96.60;;;;;;5061085;28;20503;-28
2021/06/27 07:22:57;;;;;;;7.47;7.00;;;27.90;97.10;;;;;;5062329;28;20438;-22
2021/06/27 07:25:28;;;;;;;7.37;6.87;;;27.80;97.80;;;;;;5061258;28;20479;-23
2021/06/27 07:28:03;;;;;;;7.17;6.60;;;27.70;98.10;;;;;;5061800;28;20463;-25
2021/06/27 07:30:35;;;;;;;7.80;7.30;;;27.60;98.90;;;;;;5062286;28;20451;-24
2021/06/27 07:33:11;;;;;;;8.00;7.30;;;27.70;98.90;;;;;;5061797;28;20446;-23
2021/06/27 07:35:43;;;;;;;7.10;6.70;;;27.70;98.90;;;;;;5061618;28;20454;-24
2021/06/27 07:38:14;;;;;;;8.13;7.53;;;27.60;99.50;;;;;;5061078;28;20451;-26
2021/06/27 07:40:51;;;;;;;7.80;7.30;;;27.50;99.80;;;;;;5060968;28;21160;-24
2021/06/27 07:43:26;;;;;;;8.07;7.37;;;27.60;99.70;;;;;;5061834;28;20776;-23
2021/06/27 07:45:57;;;;;;;7.83;7.23;;;27.70;99.60;;;;;;5061429;28;20481;-23
2021/06/27 07:48:28;;;;;;;8.80;8.20;;;27.80;99.30;;;;;;5061278;28;20459;-23
2021/06/27 07:50:59;;;;;;;7.40;7.00;;;27.90;99.50;;;;;;5060988;28;20484;-25
2021/06/27 07:53:36;;;;;;;8.00;7.50;;;27.90;99.60;;;;;;5062144;28;20450;-24
2021/06/27 07:56:07;;;;;;;7.67;7.17;;;27.80;99.90;;;;;;5061402;28;20447;-22
2021/06/27 07:59:01;;;;;;;8.00;7.40;;;27.70;99.80;;;;;;5061236;28;20802;-23
2021/06/27 08:01:32;;;;;;;7.87;7.27;;;27.60;99.90;;;;;;5064715;28;20452;-21
2021/06/27 08:04:06;;;;;;;7.53;7.03;;;27.50;99.90;;;;;;5065105;28;20527;-21
2021/06/27 08:06:37;;;;;;;7.90;7.40;;;27.40;99.90;;;;;;5065226;28;20486;-23
2021/06/27 08:09:08;;;;;;;7.80;7.13;;;27.40;99.90;;;;;;5063237;28;20465;-23
2021/06/27 08:11:39;;;;;;;8.27;7.77;;;27.40;99.90;;;;;;5065363;28;20587;-23
2021/06/27 08:14:11;;;;;;;8.63;7.93;;;27.50;99.90;;;;;;5065277;28;20496;-23
2021/06/27 08:16:42;;;;;;;8.37;7.87;;;27.50;99.90;;;;;;5064792;28;20445;-23
2021/06/27 08:19:13;;;;;;;8.60;7.80;;;27.50;99.90;;;;;;5064420;28;20510;-25
2021/06/27 08:21:44;;;;;;;7.87;7.33;;;27.50;99.90;;;;;;5064627;28;20458;-22
2021/06/27 08:24:15;;;;;;;9.03;8.33;;;27.40;99.90;;;;;;5058688;28;20466;-23
2021/06/27 08:26:46;;;;;;;7.70;7.10;;;27.30;99.90;;;;;;5065500;28;20963;-28
2021/06/27 08:29:19;;;;;;;7.93;7.43;;;27.20;99.90;;;;;;5064460;28;20455;-23
2021/06/27 08:31:50;;;;;;;7.77;7.27;;;27.10;99.90;;;;;;5064829;28;20467;-22
2021/06/27 08:34:21;;;;;;;8.37;7.67;;;27.00;99.90;;;;;;5064783;28;20564;-23
2021/06/27 08:36:52;;;;;;;8.17;7.60;;;27.00;99.90;;;;;;5063454;28;20938;-22
2021/06/27 08:39:23;;;;;;;8.13;7.63;;;26.90;99.90;;;;;;5063568;28;20472;-22
2021/06/27 08:41:54;;;;;;;7.70;7.10;;;26.70;99.90;;;;;;5065200;28;20508;-25
2021/06/27 08:44:28;;;;;;;7.80;7.20;;;26.70;99.90;;;;;;5064321;28;20452;-22
2021/06/27 08:47:01;;;;;;;9.20;8.53;;;26.60;99.90;;;;;;5060828;28;20488;-24
2021/06/27 08:49:33;;;;;;;8.27;7.77;;;26.50;99.90;;;;;;5063957;28;20472;-23
2021/06/27 08:52:04;;;;;;;8.73;7.93;;;26.50;99.90;;;;;;5064924;28;20456;-22
2021/06/27 08:54:35;;;;;;;8.80;8.10;;;26.50;99.90;;;;;;5063278;28;20796;-23
2021/06/27 08:57:07;;;;;;;8.23;7.63;;;26.50;99.90;;;;;;5064607;28;20471;-23
2021/06/27 08:59:40;;;;;;;8.33;7.63;;;26.40;99.90;;;;;;5064157;28;20477;-23
2021/06/27 09:02:11;;;;;;;9.57;8.77;;;26.30;99.90;;;;;;5064518;28;20814;-22
2021/06/27 09:04:44;;;;;;;8.90;8.20;;;26.30;99.90;;;;;;5064031;28;20458;-25
2021/06/27 09:07:29;;;;;;;8.23;7.73;;;26.20;99.90;;;;;;5063585;28;21005;-22
2021/06/27 09:10:05;;;;;;;8.00;7.50;;;26.10;99.90;;;;;;5062933;28;20459;-22
2021/06/27 09:12:50;;;;;;;8.50;8.00;;;26.20;99.90;;;;;;5063810;28;20436;-23
2021/06/27 09:15:47;;;;;;;9.00;8.43;;;26.10;99.90;;;;;;5064189;28;20814;-21
2021/06/27 09:18:28;;;;;;;8.80;8.20;;;26.10;99.90;;;;;;5064228;28;20444;-23
2021/06/27 09:20:59;;;;;;;8.80;8.10;;;26.00;99.90;;;;;;5063637;28;20460;-22
2021/06/27 09:23:40;;;;;;;9.53;8.83;;;26.00;99.90;;;;;;5064181;28;20521;-23
2021/06/27 09:26:13;;;;;;;9.47;8.70;;;25.90;99.90;;;;;;5062730;28;20503;-23
2021/06/27 09:28:47;;;;;;;8.70;8.10;;;25.90;99.90;;;;;;5064213;28;20453;-23
2021/06/27 09:31:41;;;;;;;9.23;8.63;;;26.00;99.90;;;;;;5063913;28;20447;-21
2021/06/27 09:34:14;;;;;;;8.57;7.90;;;25.90;99.90;;;;;;5050303;28;20460;-23
2021/06/27 09:36:48;;;;;;;8.83;8.13;;;25.80;99.90;;;;;;5063676;28;20444;-24
2021/06/27 09:39:20;;;;;;;8.97;8.47;;;25.70;99.90;;;;;;5062464;28;20488;-25
2021/06/27 09:41:52;;;;;;;8.97;8.47;;;25.70;99.90;;;;;;5063467;28;20448;-26
2021/06/27 09:44:24;;;;;;;9.10;8.30;;;25.60;99.90;;;;;;5063132;28;20610;-25
2021/06/27 09:46:57;;;;;;;8.87;8.27;;;25.50;99.90;;;;;;5063612;28;20534;-24
2021/06/27 09:49:32;;;;;;;9.13;8.43;;;25.60;99.90;;;;;;5058124;28;20471;-24
2021/06/27 09:52:07;;;;;;;9.10;8.40;;;25.70;99.90;;;;;;5063649;28;20466;-24
2021/06/27 09:54:39;;;;;;;10.03;9.33;;;25.80;99.90;;;;;;5051588;28;20571;-22
2021/06/27 09:57:10;;;;;;;9.50;8.80;;;25.80;99.90;;;;;;5063634;28;20790;-23
2021/06/27 09:59:42;;;;;;;9.27;8.67;;;25.80;99.90;;;;;;5061763;28;20530;-23
2021/06/27 10:02:15;;;;;;;9.13;8.63;;;25.90;99.90;;;;;;5063470;28;20478;-22
2021/06/27 10:04:46;;;;;;;9.10;8.50;;;25.90;99.90;;;;;;5062716;28;20488;-24
2021/06/27 10:07:17;;;;;;;9.40;8.80;;;25.80;99.90;;;;;;5062856;28;20807;-24
2021/06/27 10:09:48;;;;;;;9.20;8.50;;;25.70;99.90;;;;;;5060722;28;20468;-21
2021/06/27 10:12:20;;;;;;;9.67;8.97;;;25.60;99.90;;;;;;5063070;28;20476;-21
2021/06/27 10:14:58;;;;;;;9.90;9.00;;;25.60;99.90;;;;;;5062459;28;20506;-21
2021/06/27 10:17:31;;;;;;;10.10;9.20;;;25.70;99.90;;;;;;5062519;28;20444;-21
2021/06/27 10:20:02;;;;;;;9.57;8.87;;;25.60;99.90;;;;;;5062410;28;20510;-24
2021/06/27 10:22:34;;;;;;;10.20;9.50;;;25.50;99.90;;;;;;5062953;28;20529;-24
2021/06/27 10:25:06;;;;;;;9.80;9.20;;;25.40;99.90;;;;;;5062030;28;20445;-22
2021/06/27 10:27:37;;;;;;;10.17;9.37;;;25.30;99.90;;;;;;5062811;28;20484;-26
2021/06/27 10:30:10;;;;;;;9.97;9.30;;;25.30;99.90;;;;;;5061893;28;20477;-23
2021/06/27 10:32:44;;;;;;;10.83;9.93;;;25.20;99.90;;;;;;5062858;28;20478;-23
2021/06/27 10:35:16;;;;;;;10.50;9.80;;;25.20;99.90;;;;;;5061900;28;20457;-22
2021/06/27 10:37:47;;;;;;;11.00;10.20;;;25.10;99.90;;;;;;5062079;28;20437;-24
2021/06/27 10:40:19;;;;;;;11.20;10.50;;;25.10;99.90;;;;;;5061431;28;20463;-22
2021/06/27 10:43:01;;;;;;;10.43;9.63;;;25.10;99.90;;;;;;5062761;28;20456;-24
2021/06/27 10:45:58;;;;;;;10.30;9.63;;;25.00;99.90;;;;;;5061596;28;20482;-22
2021/06/27 10:48:41;;;;;;;10.70;10.00;;;25.00;99.90;;;;;;5052016;28;20569;-21
2021/06/27 10:51:13;;;;;;;10.40;9.70;;;25.00;99.90;;;;;;5061591;28;20503;-24
2021/06/27 10:54:15;;;;;;;10.33;9.60;;;24.90;99.90;;;;;;5062638;28;20918;-24
2021/06/27 10:57:04;;;;;;;10.37;9.63;;;24.80;99.90;;;;;;5051276;28;20448;-22
2021/06/27 11:00:05;;;;;;;9.77;9.07;;;24.80;99.90;;;;;;5057042;28;20453;-22
2021/06/27 11:02:44;;;;;;;10.60;10.00;;;24.70;99.90;;;;;;5046568;28;20500;-23
2021/06/27 11:05:44;;;;;;;11.63;10.73;;;24.60;99.90;;;;;;5061014;28;20440;-24
2021/06/27 11:08:30;;;;;;;11.90;11.00;;;24.60;99.90;;;;;;5067785;28;20782;-25
2021/06/27 11:11:03;;;;;;;11.30;10.50;;;24.60;99.90;;;;;;5060223;28;20555;-25
2021/06/27 11:13:34;;;;;;;11.90;10.80;;;24.60;99.90;;;;;;5062092;28;20444;-24
2021/06/27 11:16:18;;;;;;;10.70;9.90;;;24.60;99.90;;;;;;5062114;28;20479;-24
2021/06/27 11:18:52;;;;;;;11.27;10.47;;;24.60;99.90;;;;;;5062079;28;20448;-24
2021/06/27 11:21:37;;;;;;;10.93;10.23;;;24.50;99.90;;;;;;5054098;28;20449;-23
2021/06/27 11:24:10;;;;;;;11.10;10.30;;;24.40;99.90;;;;;;5061429;28;20484;-23
2021/06/27 11:27:00;;;;;;;10.53;9.80;;;24.30;99.90;;;;;;5062234;28;20440;-25
2021/06/27 11:29:45;;;;;;;11.80;10.90;;;24.30;99.90;;;;;;5062428;28;20449;-22
2021/06/27 11:32:47;;;;;;;10.30;9.60;;;24.20;99.90;;;;;;5062885;28;20471;-22
2021/06/27 11:35:41;;;;;;;10.90;10.10;;;24.20;99.90;;;;;;5059724;28;20460;-24
2021/06/27 11:38:43;;;;;;;11.13;10.37;;;24.10;99.90;;;;;;5067017;28;20578;-22
2021/06/27 11:41:35;;;;;;;11.10;10.20;;;24.10;99.90;;;;;;5064943;28;20513;-24
2021/06/27 11:44:09;;;;;;;10.77;9.87;;;24.00;99.90;;;;;;5065594;28;20430;-23
2021/06/27 11:46:42;;;;;;;11.33;10.53;;;24.00;99.90;;;;;;5066441;28;20482;-23
2021/06/27 11:49:16;;;;;;;10.77;9.97;;;24.00;99.90;;;;;;5064844;28;20496;-22
2021/06/27 11:51:48;;;;;;;12.07;11.20;;;23.90;99.90;;;;;;5065950;28;20557;-28
2021/06/27 11:54:26;;;;;;;11.70;10.90;;;23.90;99.90;;;;;;5064316;28;20521;-25
2021/06/27 11:57:02;;;;;;;11.23;10.33;;;23.90;99.90;;;;;;5066033;28;20475;-22
2021/06/27 11:59:36;;;;;;;11.57;10.67;;;23.80;99.90;;;;;;5065585;28;20468;-22
2021/06/27 12:02:16;;;;;;;11.33;10.43;;;23.80;99.90;;;;;;5065547;28;20523;-26
2021/06/27 12:04:49;;;;;;;11.50;10.70;;;23.70;99.90;;;;;;5058104;28;20516;-22
2021/06/27 12:07:31;;;;;;;11.13;10.43;;;23.80;99.90;;;;;;5065016;28;20476;-22
2021/06/27 12:10:07;;;;;;;11.60;10.83;;;23.70;99.90;;;;;;5059589;28;20442;-23
2021/06/27 12:12:41;;;;;;;12.27;11.40;;;23.60;99.90;;;;;;5064808;28;20453;-23
2021/06/27 12:15:35;;;;;;;11.53;10.73;;;23.60;99.90;;;;;;5064908;28;20454;-24
2021/06/27 12:18:12;;;;;;;10.80;10.10;;;23.60;99.90;;;;;;5051367;28;20527;-24
2021/06/27 12:20:47;;;;;;;11.87;10.97;;;23.70;99.90;;;;;;5055582;28;20455;-23
2021/06/27 12:23:20;;;;;;;11.93;10.93;;;23.70;99.90;;;;;;5065309;28;20448;-26
2021/06/27 12:25:54;;;;;;;12.23;11.23;;;23.70;99.90;;;;;;5063319;28;20563;-22
2021/06/27 12:28:33;;;;;;;12.40;11.50;;;23.70;99.90;;;;;;5064791;28;20488;-23
2021/06/27 12:31:11;;;;;;;12.80;11.70;;;23.70;99.90;;;;;;5065113;28;20938;-23
2021/06/27 12:33:44;;;;;;;12.53;11.67;;;23.70;99.90;;;;;;5065068;28;20559;-23
2021/06/27 12:36:16;;;;;;;11.80;10.87;;;23.80;99.90;;;;;;5064302;28;20444;-21
2021/06/27 12:38:53;;;;;;;11.70;10.90;;;23.80;99.90;;;;;;5065175;28;20520;-23
2021/06/27 12:41:30;;;;;;;10.63;10.03;;;23.60;99.90;;;;;;5060370;28;20489;-24
2021/06/27 12:44:02;;;;;;;11.50;10.80;;;23.50;99.90;;;;;;5061878;28;20451;-23
2021/06/27 12:46:40;;;;;;;11.23;10.53;;;23.50;99.90;;;;;;5050918;28;20479;-22
2021/06/27 12:49:14;;;;;;;12.07;11.23;;;23.50;99.90;;;;;;5062844;28;20612;-22
2021/06/27 12:51:47;;;;;;;12.70;11.90;;;23.40;99.90;;;;;;5064213;28;20836;-22
2021/06/27 12:54:27;;;;;;;13.13;12.13;;;23.50;99.90;;;;;;5063954;28;20483;-22
2021/06/27 12:57:03;;;;;;;12.50;11.60;;;23.40;99.90;;;;;;5064353;28;20457;-24
2021/06/27 12:59:50;;;;;;;12.10;11.30;;;23.40;99.90;;;;;;5064441;28;20434;-22
2021/06/27 13:02:32;;;;;;;12.83;11.80;;;23.50;99.90;;;;;;5063698;28;20449;-22
2021/06/27 13:05:05;;;;;;;12.83;12.03;;;23.50;99.90;;;;;;5063730;28;20484;-24
2021/06/27 13:07:38;;;;;;;12.17;11.37;;;23.40;99.90;;;;;;5064270;28;20452;-26
2021/06/27 13:10:12;;;;;;;12.60;11.67;;;23.40;99.90;;;;;;5063089;28;20480;-25
2021/06/27 13:12:59;;;;;;;12.00;11.20;;;23.40;99.90;;;;;;5064292;28;20524;-20
2021/06/27 13:15:37;;;;;;;12.70;11.80;;;23.40;99.90;;;;;;5064293;28;20411;-22
2021/06/27 13:18:11;;;;;;;12.03;11.10;;;23.40;99.90;;;;;;5063509;28;20472;-23
2021/06/27 13:20:44;;;;;;;12.43;11.63;;;23.40;99.90;;;;;;5063842;28;20476;-22